This is the latest recevied weather packets stored in our database for station/object DO6WO-10. If no packets are shown the sender has not sent any weather packets the latest 10 day(s).
| Time | Temp. | Humidity | Pressure | Rain* | Wind** | Luminosity | Snow |
|---|---|---|---|---|---|---|---|
| 1777742894 | 24.44° C | 26% | 1023.1 hPa | - | - | - | - |
| 1777740194 | 26.67° C | 26% | 1023.1 hPa | - | - | - | - |
| 1777737494 | 26.11° C | 26% | 1023.7 hPa | - | - | - | - |
| 1777734794 | 27.78° C | 24% | 1024 hPa | - | - | - | - |
| 1777732094 | 27.78° C | 24% | 1024.5 hPa | - | - | - | - |
| 1777729394 | 27.78° C | 25% | 1024.9 hPa | - | - | - | - |
| 1777726694 | 27.22° C | 26% | 1025.5 hPa | - | - | - | - |
| 1777723993 | 27.22° C | 25% | 1026.1 hPa | - | - | - | - |
| 1777721293 | 25° C | 28% | 1026.8 hPa | - | - | - | - |
| 1777718594 | 23.89° C | 29% | 1027.4 hPa | - | - | - | - |
| 1777715893 | 21.67° C | 30% | 1028.2 hPa | - | - | - | - |
| 1777713195 | 20° C | 31% | 1028.8 hPa | - | - | - | - |
| 1777710497 | 17.78° C | 32% | 1029.2 hPa | - | - | - | - |
| 1777707795 | 16.11° C | 34% | 1029.4 hPa | - | - | - | - |
| 1777705095 | 13.33° C | 36% | 1029.8 hPa | - | - | - | - |
| 1777702395 | 11.67° C | 37% | 1030 hPa | - | - | - | - |
| 1777699695 | 8.89° C | 37% | 1030.3 hPa | - | - | - | - |
| 1777696995 | 7.78° C | 37% | 1030.2 hPa | - | - | - | - |
| 1777694297 | 7.78° C | 38% | 1030 hPa | - | - | - | - |
| 1777691595 | 8.89° C | 36% | 1029.8 hPa | - | - | - | - |
| 1777688895 | 8.89° C | 37% | 1029.9 hPa | - | - | - | - |
| 1777686196 | 10° C | 36% | 1029.9 hPa | - | - | - | - |
| 1777683496 | 10° C | 36% | 1030.1 hPa | - | - | - | - |
| 1777680796 | 11.11° C | 34% | 1030.1 hPa | - | - | - | - |
| 1777678096 | 11.11° C | 35% | 1030.2 hPa | - | - | - | - |
* Rain since midnight (hover to see other rain measurements)
** Current wind speed in m/s (hover to see current wind gust speed)